Time;durP1;ratioP1;P1;durP2;ratioP2;P2;SDS_P1;SDS_P2;PMS_P1;PMS_P2;Temp;Humidity;BMP_temperature;BMP_pressure;BME280_temperature;BME280_humidity;BME280_pressure;Samples;Min_cycle;Max_cycle;Signal;HPM_P1;HPM_P2
2023/02/21 02:15:47;;;;;;;3.15;2.85;;;14.30;75.80;;;;;;4994313;28;20586;-74
2023/02/21 02:18:28;;;;;;;3.33;2.92;;;14.30;75.80;;;;;;4995231;28;20027;-74
2023/02/21 02:21:06;;;;;;;3.85;2.60;;;14.30;75.80;;;;;;4995103;28;20042;-74
2023/02/21 02:23:50;;;;;;;2.83;2.53;;;14.30;76.00;;;;;;4975768;28;20105;-74
2023/02/21 02:26:34;;;;;;;2.90;2.70;;;14.30;75.80;;;;;;4975709;28;20031;-75
2023/02/21 02:29:24;;;;;;;4.95;3.10;;;14.30;75.80;;;;;;4975748;28;20031;-74
2023/02/21 02:32:27;;;;;;;3.47;2.80;;;14.30;75.80;;;;;;4975736;28;20106;-74
2023/02/21 02:35:02;;;;;;;3.97;2.75;;;14.30;75.80;;;;;;4975591;28;20110;-74
2023/02/21 02:37:42;;;;;;;3.58;2.78;;;14.30;75.80;;;;;;4990333;28;20141;-74
2023/02/21 02:40:14;;;;;;;2.63;2.42;;;14.30;75.90;;;;;;4994610;28;20023;-74
2023/02/21 02:43:01;;;;;;;3.80;2.90;;;14.30;75.80;;;;;;4994908;28;20045;-74
2023/02/21 02:45:50;;;;;;;2.80;2.60;;;14.30;75.90;;;;;;4994778;28;20050;-74
2023/02/21 02:48:21;;;;;;;3.50;2.90;;;14.30;75.80;;;;;;5025889;28;20032;-74
2023/02/21 02:50:47;;;;;;;3.20;2.90;;;14.30;75.80;;;;;;4993662;28;20357;-75
2023/02/21 02:53:15;;;;;;;8.02;2.80;;;14.30;75.80;;;;;;4994615;28;20026;-74
2023/02/21 02:56:03;;;;;;;4.80;2.67;;;14.20;75.90;;;;;;4993406;28;20038;-74
2023/02/21 02:58:34;;;;;;;2.88;2.33;;;14.20;75.90;;;;;;4993412;28;20053;-74
2023/02/21 03:01:23;;;;;;;3.00;2.72;;;14.20;76.00;;;;;;4993524;28;20488;-74
2023/02/21 03:04:24;;;;;;;2.50;2.30;;;14.30;76.00;;;;;;4996543;28;20038;-75
2023/02/21 03:07:02;;;;;;;3.03;2.78;;;14.30;75.90;;;;;;5011755;28;20045;-74
2023/02/21 03:09:38;;;;;;;3.78;2.67;;;14.30;76.10;;;;;;5011715;28;20034;-74
2023/02/21 03:12:14;;;;;;;3.85;2.90;;;14.30;75.80;;;;;;4995433;28;20030;-74
2023/02/21 03:14:49;;;;;;;3.15;2.83;;;14.20;75.90;;;;;;4995332;28;20053;-74
2023/02/21 03:17:17;;;;;;;2.78;2.50;;;14.30;76.10;;;;;;4979708;28;20498;-75
2023/02/21 03:19:43;;;;;;;3.58;2.70;;;14.20;76.00;;;;;;4979779;28;20049;-75
2023/02/21 03:22:17;;;;;;;3.08;2.45;;;14.20;76.00;;;;;;4978550;28;20092;-75
2023/02/21 03:24:43;;;;;;;2.65;2.45;;;14.20;76.10;;;;;;4979161;28;20021;-75
2023/02/21 03:27:09;;;;;;;2.92;2.65;;;14.20;76.10;;;;;;4979093;28;20030;-75
2023/02/21 03:29:35;;;;;;;2.80;2.60;;;14.20;76.10;;;;;;4978506;28;20061;-75
2023/02/21 03:34:39;;;;;;;3.38;2.83;;;14.20;76.00;;;;;;4980037;28;20108;-75
2023/02/21 03:37:09;;;;;;;3.22;2.60;;;14.20;76.10;;;;;;4962685;28;20446;-74
2023/02/21 03:39:34;;;;;;;2.90;2.60;;;14.20;76.10;;;;;;4979275;28;20146;-75
2023/02/21 03:42:00;;;;;;;3.95;2.67;;;14.20;76.10;;;;;;4992247;28;20113;-75
2023/02/21 03:44:25;;;;;;;3.13;2.83;;;14.20;76.10;;;;;;4992508;28;20448;-75
2023/02/21 03:46:51;;;;;;;3.90;2.83;;;14.20;76.00;;;;;;4993355;28;20522;-75
2023/02/21 03:49:17;;;;;;;2.60;2.40;;;14.20;76.00;;;;;;4993559;28;20038;-74
2023/02/21 03:51:42;;;;;;;2.85;2.40;;;14.20;76.10;;;;;;4993633;28;20026;-74
2023/02/21 03:54:08;;;;;;;5.10;2.67;;;14.20;76.20;;;;;;4993514;28;20031;-74
2023/02/21 03:56:33;;;;;;;3.80;2.55;;;14.20;76.00;;;;;;4993524;28;20022;-74
2023/02/21 03:58:59;;;;;;;3.13;2.83;;;14.20;76.00;;;;;;4993409;28;20053;-74
2023/02/21 04:01:25;;;;;;;2.55;2.35;;;14.20;76.20;;;;;;4993204;28;20392;-74
2023/02/21 04:03:50;;;;;;;2.97;2.50;;;14.20;76.00;;;;;;4992280;28;20451;-74
2023/02/21 04:06:16;;;;;;;2.70;2.50;;;14.20;76.00;;;;;;4992211;28;20054;-74
2023/02/21 04:08:42;;;;;;;2.60;2.25;;;14.20;76.00;;;;;;4993320;28;20443;-75
2023/02/21 04:11:07;;;;;;;3.15;2.80;;;14.20;76.10;;;;;;4992307;28;20491;-74
2023/02/21 04:13:33;;;;;;;2.47;2.28;;;14.20;76.10;;;;;;4991928;28;20542;-74
2023/02/21 04:15:59;;;;;;;2.92;2.70;;;14.20;76.00;;;;;;4991879;28;20054;-74
2023/02/21 04:18:24;;;;;;;2.72;2.28;;;14.20;76.00;;;;;;4993213;28;20069;-74
2023/02/21 04:20:50;;;;;;;6.00;2.55;;;14.20;76.00;;;;;;4991760;28;20085;-74
2023/02/21 04:23:20;;;;;;;3.33;2.90;;;14.20;76.10;;;;;;4993107;28;20030;-74
2023/02/21 04:25:45;;;;;;;3.10;2.55;;;14.20;76.10;;;;;;4976257;28;20033;-74
2023/02/21 04:28:11;;;;;;;3.75;2.25;;;14.20;76.10;;;;;;4991905;28;20026;-74
2023/02/21 04:30:37;;;;;;;2.42;2.22;;;14.20;76.10;;;;;;4993058;28;20058;-74
2023/02/21 04:33:03;;;;;;;2.92;2.28;;;14.20;76.20;;;;;;4991861;28;20049;-74
2023/02/21 04:35:28;;;;;;;2.50;2.30;;;14.20;76.20;;;;;;4991908;28;20022;-75
2023/02/21 04:37:54;;;;;;;2.67;2.22;;;14.20;76.10;;;;;;4993021;28;20092;-75
2023/02/21 04:40:20;;;;;;;3.05;2.28;;;14.20;76.10;;;;;;4994149;28;20025;-75
2023/02/21 04:42:45;;;;;;;2.88;2.47;;;14.20;76.10;;;;;;4995741;28;20038;-74
2023/02/21 04:45:11;;;;;;;2.38;2.17;;;14.20;76.20;;;;;;4997066;28;20030;-74
2023/02/21 04:47:37;;;;;;;2.40;2.17;;;14.20;76.20;;;;;;4995887;28;20038;-75
2023/02/21 04:50:03;;;;;;;2.35;2.15;;;14.20;76.20;;;;;;4996860;28;20077;-74
2023/02/21 04:52:29;;;;;;;2.40;2.20;;;14.20;76.20;;;;;;4995584;28;20030;-75
2023/02/21 04:54:54;;;;;;;2.22;2.10;;;14.20;76.20;;;;;;4995679;28;20053;-74
2023/02/21 04:57:20;;;;;;;3.10;2.50;;;14.20;76.20;;;;;;4995520;28;20551;-74
2023/02/21 04:59:46;;;;;;;2.90;2.08;;;14.20;76.20;;;;;;4995554;28;20029;-75
2023/02/21 05:02:11;;;;;;;3.38;2.40;;;14.20;76.20;;;;;;4996690;28;20030;-75
2023/02/21 05:04:37;;;;;;;2.42;2.22;;;14.20;76.20;;;;;;4996856;28;20037;-74
2023/02/21 05:07:03;;;;;;;3.45;2.25;;;14.20;76.20;;;;;;4996640;28;20041;-75
2023/02/21 05:09:29;;;;;;;3.33;2.22;;;14.20;76.20;;;;;;4995378;28;20030;-74
2023/02/21 05:11:54;;;;;;;2.22;2.03;;;14.20;76.10;;;;;;4996380;28;20530;-75
2023/02/21 05:14:20;;;;;;;2.85;2.00;;;14.10;76.10;;;;;;4996533;28;20022;-74
2023/02/21 05:16:45;;;;;;;2.78;2.20;;;14.10;76.10;;;;;;4995253;28;20476;-74
2023/02/21 05:19:11;;;;;;;2.42;2.22;;;14.20;76.20;;;;;;4995396;28;20022;-74
2023/02/21 05:21:37;;;;;;;3.13;2.40;;;14.10;76.10;;;;;;4995067;28;20046;-74
2023/02/21 05:24:04;;;;;;;2.22;2.03;;;14.10;76.10;;;;;;4996040;28;20032;-74
2023/02/21 05:26:33;;;;;;;2.33;2.13;;;14.10;76.10;;;;;;4994949;28;20030;-74
2023/02/21 05:28:59;;;;;;;3.22;2.35;;;14.10;76.10;;;;;;4996155;28;20085;-74
2023/02/21 05:31:25;;;;;;;2.30;2.10;;;14.10;76.10;;;;;;4995026;28;20030;-74
2023/02/21 05:33:50;;;;;;;2.47;2.08;;;14.10;76.10;;;;;;4995992;28;20032;-75
2023/02/21 05:36:16;;;;;;;2.70;2.50;;;14.10;76.10;;;;;;4996185;28;20032;-74
2023/02/21 05:38:49;;;;;;;2.83;2.22;;;14.10;76.10;;;;;;4995873;28;20065;-74
2023/02/21 05:41:15;;;;;;;3.05;2.10;;;14.10;76.10;;;;;;4995865;28;20073;-74
2023/02/21 05:43:45;;;;;;;2.33;2.13;;;14.10;76.10;;;;;;4994770;28;20023;-75
2023/02/21 05:46:18;;;;;;;2.80;2.20;;;14.10;76.10;;;;;;4994796;28;20042;-74
2023/02/21 05:48:43;;;;;;;2.10;1.90;;;14.10;76.10;;;;;;4994537;28;20026;-74
2023/02/21 05:51:09;;;;;;;3.58;1.98;;;14.10;76.10;;;;;;4995290;28;20033;-74
2023/02/21 05:53:35;;;;;;;2.42;2.20;;;14.10;76.10;;;;;;4995838;28;20026;-74
2023/02/21 05:56:00;;;;;;;2.28;2.08;;;14.10;76.10;;;;;;4995633;28;20027;-74
2023/02/21 05:58:26;;;;;;;2.78;1.83;;;14.10;76.10;;;;;;4994416;28;20014;-75
2023/02/21 06:00:52;;;;;;;4.13;2.30;;;14.10;76.10;;;;;;4995648;28;20038;-74
2023/02/21 06:03:17;;;;;;;2.30;2.10;;;14.10;76.20;;;;;;4994408;28;20395;-74
2023/02/21 06:05:43;;;;;;;3.55;2.08;;;14.10;76.10;;;;;;4995654;28;20038;-74
2023/02/21 06:08:09;;;;;;;2.25;2.05;;;14.10;76.20;;;;;;4995491;28;20034;-74
2023/02/21 06:10:34;;;;;;;2.22;1.92;;;14.10;76.20;;;;;;4995227;28;20050;-74
2023/02/21 06:13:00;;;;;;;2.35;2.10;;;14.10;76.10;;;;;;4995328;28;20028;-74
2023/02/21 06:15:26;;;;;;;2.63;2.42;;;14.10;76.20;;;;;;4994178;28;20026;-74
2023/02/21 06:17:51;;;;;;;2.63;2.20;;;14.10;76.20;;;;;;4994009;28;20440;-74
2023/02/21 06:20:17;;;;;;;3.38;1.83;;;14.10;76.20;;;;;;4995515;28;20078;-74
2023/02/21 06:22:43;;;;;;;2.20;1.80;;;14.10;76.20;;;;;;4995074;28;20064;-74
2023/02/21 06:25:09;;;;;;;1.90;1.80;;;14.10;76.20;;;;;;4995122;28;20022;-74
2023/02/21 06:27:34;;;;;;;2.40;2.17;;;14.10;76.50;;;;;;4993898;28;20030;-74
2023/02/21 06:30:00;;;;;;;2.30;2.10;;;14.10;76.30;;;;;;4994000;28;20034;-74
2023/02/21 06:32:26;;;;;;;1.83;1.73;;;14.10;76.20;;;;;;4993795;28;20061;-74
2023/02/21 06:34:52;;;;;;;1.90;1.80;;;14.10;76.20;;;;;;4995015;28;20045;-74
2023/02/21 06:37:18;;;;;;;2.20;1.90;;;14.10;76.30;;;;;;4993856;28;20019;-74
2023/02/21 06:39:44;;;;;;;1.95;1.85;;;14.10;76.30;;;;;;4993386;28;20109;-74
2023/02/21 06:42:15;;;;;;;2.65;1.90;;;14.10;76.30;;;;;;4994883;28;20022;-75
2023/02/21 06:44:45;;;;;;;2.90;1.52;;;14.00;76.30;;;;;;4994868;28;20506;-74
2023/02/21 06:47:11;;;;;;;2.00;1.90;;;14.10;76.30;;;;;;4992704;28;20496;-74
2023/02/21 06:49:36;;;;;;;2.15;2.00;;;14.10;76.40;;;;;;4993777;28;20031;-75
2023/02/21 06:52:02;;;;;;;3.08;2.17;;;14.10;76.50;;;;;;4993231;28;20393;-74
2023/02/21 06:54:28;;;;;;;2.05;1.90;;;14.10;76.70;;;;;;4993375;28;20057;-74
2023/02/21 06:56:55;;;;;;;3.30;2.17;;;14.10;76.70;;;;;;4991288;28;20023;-74
2023/02/21 06:59:20;;;;;;;5.22;2.00;;;14.10;76.70;;;;;;4994367;28;20026;-74
2023/02/21 07:01:46;;;;;;;2.50;1.90;;;14.10;76.70;;;;;;4994576;28;20149;-74
2023/02/21 07:04:12;;;;;;;2.05;1.83;;;14.10;76.60;;;;;;4992616;28;20077;-74
2023/02/21 07:06:37;;;;;;;2.72;2.00;;;14.10;76.60;;;;;;4977082;28;20033;-74
2023/02/21 07:09:03;;;;;;;3.58;2.15;;;14.10;76.60;;;;;;4993461;28;20109;-73
2023/02/21 07:11:30;;;;;;;6.45;1.90;;;14.10;75.80;;;;;;5011416;28;20391;-73
2023/02/21 07:13:58;;;;;;;6.15;1.65;;;14.10;75.80;;;;;;5012419;28;20080;-73
2023/02/21 07:16:24;;;;;;;5.00;1.75;;;14.00;74.50;;;;;;5012725;28;20021;-73
2023/02/21 07:18:49;;;;;;;1.52;1.38;;;14.00;74.50;;;;;;5012367;28;20510;-73
2023/02/21 07:21:16;;;;;;;2.33;2.03;;;14.00;74.50;;;;;;5012339;28;20073;-73
2023/02/21 07:23:43;;;;;;;2.03;1.90;;;14.00;74.20;;;;;;4999303;28;20081;-73
2023/02/21 07:26:09;;;;;;;3.83;1.90;;;14.00;74.20;;;;;;4976604;28;20108;-73
2023/02/21 07:28:34;;;;;;;2.17;1.92;;;14.00;74.30;;;;;;4976518;28;20484;-73
2023/02/21 07:31:00;;;;;;;3.95;1.95;;;13.90;74.30;;;;;;4994020;28;20489;-73
2023/02/21 07:33:26;;;;;;;5.32;1.77;;;13.90;74.30;;;;;;4993671;28;20030;-73
2023/02/21 07:35:52;;;;;;;2.47;1.95;;;14.00;74.40;;;;;;4993693;28;20518;-74
2023/02/21 07:38:27;;;;;;;2.33;1.77;;;13.90;74.50;;;;;;4992315;28;20507;-74
2023/02/21 07:40:54;;;;;;;4.65;2.30;;;13.90;74.60;;;;;;4992205;28;20025;-74
2023/02/21 07:43:19;;;;;;;15.35;3.35;;;14.00;74.70;;;;;;4992343;28;20022;-74
2023/02/21 07:45:45;;;;;;;16.23;3.67;;;14.00;74.70;;;;;;4992345;28;20152;-73
2023/02/21 07:48:14;;;;;;;14.70;3.17;;;13.90;74.90;;;;;;4993506;28;20034;-73
2023/02/21 07:50:42;;;;;;;9.70;2.85;;;14.00;75.20;;;;;;4993662;28;20044;-73
2023/02/21 07:53:08;;;;;;;14.05;3.10;;;14.00;75.30;;;;;;4992008;28;20033;-73
2023/02/21 07:55:34;;;;;;;12.77;3.35;;;13.90;75.20;;;;;;4993389;28;20022;-74
2023/02/21 07:57:59;;;;;;;16.02;3.92;;;14.00;75.60;;;;;;4993202;28;20025;-73
2023/02/21 08:00:25;;;;;;;13.88;3.50;;;13.90;75.50;;;;;;4992219;28;20097;-74
2023/02/21 08:02:51;;;;;;;19.27;4.10;;;14.00;75.60;;;;;;4990058;28;20149;-73
2023/02/21 08:05:17;;;;;;;20.58;3.92;;;13.90;75.80;;;;;;4980645;28;20018;-74
2023/02/21 08:07:43;;;;;;;16.08;3.60;;;13.90;75.80;;;;;;4984755;28;20034;-74
2023/02/21 08:10:09;;;;;;;14.15;3.95;;;13.90;75.80;;;;;;4972092;28;20053;-74
2023/02/21 08:12:35;;;;;;;11.52;3.67;;;13.90;75.90;;;;;;4968529;28;20492;-73
2023/02/21 08:15:00;;;;;;;18.60;4.57;;;13.90;75.90;;;;;;4992984;28;20026;-74
2023/02/21 08:17:26;;;;;;;15.52;3.65;;;13.90;76.90;;;;;;4992074;28;20022;-74
2023/02/21 08:19:52;;;;;;;20.67;4.32;;;13.90;75.90;;;;;;4991044;28;20026;-74
2023/02/21 08:22:18;;;;;;;11.48;4.22;;;13.90;75.90;;;;;;4973138;28;20356;-73
2023/02/21 08:24:43;;;;;;;14.73;3.28;;;13.90;75.80;;;;;;4975800;28;20029;-74
2023/02/21 08:27:09;;;;;;;16.45;4.00;;;13.90;75.80;;;;;;4993047;28;20037;-74
2023/02/21 08:29:34;;;;;;;18.15;4.13;;;13.90;75.80;;;;;;4991797;28;20029;-74
2023/02/21 08:32:00;;;;;;;11.25;3.78;;;13.90;75.80;;;;;;4991767;28;20438;-74
2023/02/21 08:34:28;;;;;;;15.05;4.38;;;13.90;75.70;;;;;;4991933;28;20084;-73
2023/02/21 08:36:54;;;;;;;10.05;4.13;;;13.90;75.70;;;;;;4992673;28;20026;-73
2023/02/21 08:39:20;;;;;;;13.40;3.70;;;13.90;75.60;;;;;;4991733;28;20022;-74
2023/02/21 08:41:47;;;;;;;8.15;3.50;;;13.90;75.60;;;;;;4991873;28;20304;-73
2023/02/21 08:44:17;;;;;;;9.80;3.75;;;13.90;75.60;;;;;;4991714;28;20026;-74
2023/02/21 08:46:43;;;;;;;10.07;3.17;;;13.90;75.50;;;;;;4991799;28;20110;-73
2023/02/21 08:49:08;;;;;;;12.20;3.30;;;13.90;75.50;;;;;;4991760;28;20154;-73
2023/02/21 08:51:34;;;;;;;14.63;3.50;;;13.90;75.50;;;;;;4991582;28;20089;-73
2023/02/21 08:54:00;;;;;;;9.57;3.42;;;13.80;75.40;;;;;;4992759;28;20027;-73
2023/02/21 08:56:26;;;;;;;10.52;3.30;;;13.80;75.40;;;;;;4975400;28;20037;-73
2023/02/21 08:58:54;;;;;;;8.80;3.67;;;13.80;75.30;;;;;;4991519;28;20046;-74
2023/02/21 09:01:21;;;;;;;13.27;4.20;;;13.90;75.40;;;;;;4991500;28;20106;-74
2023/02/21 09:03:46;;;;;;;7.68;3.00;;;13.80;75.30;;;;;;4974954;28;20030;-73
2023/02/21 09:06:12;;;;;;;13.77;3.90;;;13.80;75.30;;;;;;4991481;28;20056;-74
2023/02/21 09:08:39;;;;;;;8.57;3.42;;;13.90;75.20;;;;;;4975246;28;20030;-74
2023/02/21 09:11:05;;;;;;;9.20;3.45;;;13.90;75.20;;;;;;4975422;28;20030;-73
2023/02/21 09:13:34;;;;;;;8.40;3.30;;;13.80;75.10;;;;;;4991480;28;20026;-73
2023/02/21 09:16:00;;;;;;;8.15;3.45;;;13.80;75.10;;;;;;4991408;28;20400;-73
2023/02/21 09:18:26;;;;;;;5.78;3.00;;;13.80;75.00;;;;;;4991315;28;20018;-74
2023/02/21 09:20:52;;;;;;;8.45;2.65;;;13.80;75.10;;;;;;4992357;28;20530;-74
2023/02/21 09:23:19;;;;;;;6.93;2.88;;;13.80;75.00;;;;;;4991172;28;20030;-74
2023/02/21 09:25:45;;;;;;;7.30;3.20;;;13.80;75.00;;;;;;4991493;28;20484;-74
2023/02/21 09:28:12;;;;;;;7.53;3.20;;;13.80;75.00;;;;;;4994758;28;20026;-73
2023/02/21 09:30:37;;;;;;;8.40;3.38;;;13.80;74.90;;;;;;4994981;28;20118;-74
2023/02/21 09:33:03;;;;;;;4.78;2.90;;;13.80;75.00;;;;;;4995775;28;20039;-74
2023/02/21 09:35:29;;;;;;;10.32;3.08;;;13.80;74.90;;;;;;4994723;28;20401;-73
2023/02/21 09:37:57;;;;;;;7.78;2.90;;;13.80;74.90;;;;;;4996105;28;20388;-73
2023/02/21 09:40:49;;;;;;;8.43;3.22;;;13.80;74.90;;;;;;4994675;28;20022;-73
2023/02/21 09:43:24;;;;;;;9.10;3.25;;;13.80;74.90;;;;;;4994887;28;20022;-73
2023/02/21 09:45:54;;;;;;;3.80;2.45;;;13.80;74.80;;;;;;4995885;28;20022;-73
2023/02/21 09:48:20;;;;;;;6.03;2.85;;;13.80;74.80;;;;;;4994392;28;20022;-73
2023/02/21 09:50:48;;;;;;;7.47;2.80;;;13.80;74.80;;;;;;4994545;28;20023;-74
2023/02/21 09:53:18;;;;;;;7.03;3.17;;;13.70;74.70;;;;;;4994328;28;20030;-74
2023/02/21 09:55:44;;;;;;;5.57;3.45;;;13.80;74.70;;;;;;4994713;28;20484;-74
2023/02/21 09:58:13;;;;;;;6.70;2.85;;;13.80;74.70;;;;;;4994202;28;20101;-73
2023/02/21 10:00:40;;;;;;;4.38;2.70;;;13.80;74.70;;;;;;4994512;28;20025;-74
2023/02/21 10:03:30;;;;;;;6.07;2.50;;;13.80;74.70;;;;;;4994230;28;20034;-73
2023/02/21 10:06:16;;;;;;;5.90;2.65;;;13.80;74.60;;;;;;4995423;28;20034;-73
2023/02/21 10:09:09;;;;;;;5.28;2.90;;;13.80;74.70;;;;;;4994272;28;20034;-73
2023/02/21 10:11:55;;;;;;;3.88;2.40;;;13.70;74.50;;;;;;4994056;28;20064;-74
2023/02/21 10:14:33;;;;;;;6.50;2.92;;;13.70;74.50;;;;;;4994232;28;20388;-74
2023/02/21 10:17:21;;;;;;;6.45;2.38;;;13.70;74.50;;;;;;4994276;28;20026;-74
2023/02/21 10:19:50;;;;;;;5.20;2.30;;;13.70;74.60;;;;;;4995374;28;20090;-74
2023/02/21 10:22:20;;;;;;;4.32;2.50;;;13.70;74.50;;;;;;4993649;28;20169;-74
2023/02/21 10:24:48;;;;;;;5.60;2.60;;;13.70;74.50;;;;;;4993916;28;20026;-74
2023/02/21 10:27:19;;;;;;;4.78;2.58;;;13.70;74.50;;;;;;4993983;28;20026;-74
2023/02/21 10:30:09;;;;;;;4.03;2.67;;;13.70;74.50;;;;;;4994095;28;20030;-73
2023/02/21 10:32:34;;;;;;;4.57;2.60;;;13.70;74.40;;;;;;4994760;28;20101;-74
2023/02/21 10:35:00;;;;;;;4.97;2.20;;;13.70;74.40;;;;;;4993867;28;20405;-74
2023/02/21 10:37:45;;;;;;;6.65;2.38;;;13.70;74.50;;;;;;4993483;28;20572;-74
2023/02/21 10:40:28;;;;;;;3.72;2.15;;;13.70;74.40;;;;;;4993482;28;20436;-73
2023/02/21 10:43:02;;;;;;;;;;;13.70;74.50;;;;;;4995347;28;20049;-74
2023/02/21 10:45:47;;;;;;;;;;;13.70;74.40;;;;;;4993621;28;19992;-73
2023/02/21 10:48:13;;;;;;;7.40;2.50;;;13.70;74.40;;;;;;4997041;28;19913;-73
2023/02/21 10:50:40;;;;;;;3.88;2.20;;;13.70;74.40;;;;;;4993543;28;20488;-73
2023/02/21 10:53:07;;;;;;;2.72;2.33;;;13.70;74.40;;;;;;4993358;28;20050;-74
2023/02/21 10:55:33;;;;;;;5.10;2.42;;;13.70;74.40;;;;;;4993424;28;20093;-73
2023/02/21 10:58:04;;;;;;;4.68;2.35;;;13.70;74.30;;;;;;4993497;28;20405;-73
2023/02/21 11:00:35;;;;;;;4.07;2.30;;;13.70;74.40;;;;;;4993108;28;20026;-73
2023/02/21 11:03:17;;;;;;;4.80;2.30;;;13.70;74.30;;;;;;4993359;28;20266;-74
2023/02/21 11:05:49;;;;;;;3.55;2.40;;;13.70;74.30;;;;;;4993325;28;20026;-73
2023/02/21 11:08:14;;;;;;;4.50;2.08;;;13.70;74.20;;;;;;4993173;28;20022;-74
2023/02/21 11:10:43;;;;;;;5.75;2.38;;;13.60;74.20;;;;;;4993168;28;20077;-74
2023/02/21 11:13:16;;;;;;;3.65;2.10;;;13.60;74.20;;;;;;4994039;28;20073;-74
2023/02/21 11:15:45;;;;;;;;;;;13.70;74.20;;;;;;4993423;28;20105;-74
2023/02/21 11:18:24;;;;;;;3.65;2.10;;;13.70;74.20;;;;;;4992833;28;19916;-74
2023/02/21 11:20:50;;;;;;;5.03;2.72;;;13.70;74.20;;;;;;4992671;28;20054;-74
2023/02/21 11:23:22;;;;;;;4.68;2.47;;;13.70;74.30;;;;;;4992738;28;20022;-74
2023/02/21 11:25:48;;;;;;;3.70;2.10;;;13.70;74.20;;;;;;4994155;28;20030;-74
2023/02/21 11:28:17;;;;;;;3.15;2.20;;;13.70;74.20;;;;;;4992774;28;20035;-74
2023/02/21 11:31:00;;;;;;;2.92;2.28;;;13.70;74.30;;;;;;4993653;28;20113;-74
2023/02/21 11:33:25;;;;;;;4.68;2.83;;;13.70;74.20;;;;;;4992620;28;20027;-74
2023/02/21 11:35:53;;;;;;;4.15;2.17;;;13.60;74.10;;;;;;4992596;28;20023;-73
2023/02/21 11:38:39;;;;;;;3.17;1.98;;;13.70;74.10;;;;;;4992525;28;20049;-74
2023/02/21 11:41:22;;;;;;;3.30;2.40;;;13.70;74.20;;;;;;4993911;28;20058;-73
2023/02/21 11:43:49;;;;;;;4.55;2.40;;;13.60;74.10;;;;;;4992322;28;20484;-74
2023/02/21 11:46:46;;;;;;;3.88;2.40;;;13.60;74.10;;;;;;4992460;28;20030;-73
2023/02/21 11:49:22;;;;;;;3.33;2.47;;;13.60;74.00;;;;;;4991926;28;20033;-74
2023/02/21 11:51:57;;;;;;;3.80;2.53;;;13.70;74.10;;;;;;4993563;28;20072;-74
2023/02/21 11:54:29;;;;;;;4.93;2.63;;;13.60;74.00;;;;;;4992346;28;20080;-73
2023/02/21 11:57:19;;;;;;;4.15;2.50;;;13.70;74.10;;;;;;4992308;28;20022;-73
2023/02/21 11:59:51;;;;;;;4.85;2.53;;;13.70;74.10;;;;;;4992094;28;20105;-73
2023/02/21 12:02:33;;;;;;;3.53;2.33;;;13.60;74.40;;;;;;4992199;28;20049;-74
2023/02/21 12:05:12;;;;;;;4.78;2.13;;;13.60;74.10;;;;;;4993291;28;20022;-74
2023/02/21 12:07:44;;;;;;;3.17;2.65;;;13.60;74.00;;;;;;4992118;28;20428;-74
2023/02/21 12:10:42;;;;;;;2.93;2.40;;;13.60;74.00;;;;;;4991920;28;20018;-73
2023/02/21 12:13:23;;;;;;;2.88;2.42;;;13.60;74.00;;;;;;5010313;28;20168;-73
2023/02/21 12:15:57;;;;;;;4.55;2.63;;;13.60;74.00;;;;;;5009560;28;20068;-73
2023/02/21 12:18:38;;;;;;;2.83;2.40;;;13.60;74.00;;;;;;5010691;28;20041;-73
2023/02/21 12:21:34;;;;;;;2.90;2.50;;;13.60;74.00;;;;;;5026860;28;20089;-74
2023/02/21 12:24:26;;;;;;;2.75;2.30;;;13.60;74.00;;;;;;5026882;28;20041;-73
2023/02/21 12:27:02;;;;;;;3.28;2.30;;;13.60;74.00;;;;;;5026876;28;20034;-73
2023/02/21 12:29:52;;;;;;;4.18;2.70;;;13.60;74.00;;;;;;5026041;28;20120;-74
2023/02/21 12:32:28;;;;;;;3.20;2.40;;;13.60;73.90;;;;;;5010578;28;20025;-73
2023/02/21 12:35:00;;;;;;;4.15;2.63;;;13.60;74.90;;;;;;5026858;28;20065;-74
2023/02/21 12:37:44;;;;;;;3.60;2.70;;;13.60;73.90;;;;;;5010161;28;20399;-74
2023/02/21 12:40:15;;;;;;;4.88;2.40;;;13.60;73.90;;;;;;5010538;28;20038;-74
2023/02/21 12:42:58;;;;;;;3.55;2.67;;;13.60;73.90;;;;;;5026629;28;20034;-74
2023/02/21 12:45:43;;;;;;;3.47;2.38;;;13.60;73.90;;;;;;5010303;28;20030;-74
2023/02/21 12:48:16;;;;;;;4.78;2.42;;;13.60;73.90;;;;;;5009275;28;20029;-73
2023/02/21 12:50:44;;;;;;;4.10;2.47;;;13.60;73.90;;;;;;5007299;28;20030;-73
2023/02/21 12:53:16;;;;;;;3.95;2.70;;;13.60;73.90;;;;;;4991635;28;20400;-74
2023/02/21 12:55:51;;;;;;;2.90;2.60;;;13.60;73.90;;;;;;4991594;28;20023;-73
2023/02/21 12:58:43;;;;;;;4.55;2.60;;;13.60;73.80;;;;;;4991555;28;20118;-74
2023/02/21 13:01:16;;;;;;;4.05;2.75;;;13.60;73.80;;;;;;4992228;28;20022;-74
2023/02/21 13:04:13;;;;;;;3.65;2.58;;;13.60;73.80;;;;;;4995699;28;20037;-73
2023/02/21 13:06:46;;;;;;;3.55;2.33;;;13.60;73.80;;;;;;4977124;28;20084;-74
2023/02/21 13:09:35;;;;;;;3.83;2.58;;;13.60;73.80;;;;;;4976007;28;20089;-73
2023/02/21 13:12:20;;;;;;;6.32;2.65;;;13.60;73.90;;;;;;4971077;28;20037;-74
2023/02/21 13:15:02;;;;;;;3.15;2.55;;;13.60;73.80;;;;;;4995183;28;20030;-73
2023/02/21 13:17:27;;;;;;;3.58;2.30;;;13.60;73.80;;;;;;4995405;28;20484;-73
2023/02/21 13:20:00;;;;;;;3.70;2.60;;;13.60;73.80;;;;;;4996335;28;20046;-73
2023/02/21 13:25:16;;;;;;;4.82;2.70;;;13.60;73.80;;;;;;4996392;28;19912;-73
2023/02/21 13:28:06;;;;;;;3.27;2.70;;;13.60;73.80;;;;;;4996295;28;20099;-74
2023/02/21 13:30:31;;;;;;;3.10;2.53;;;13.60;73.70;;;;;;4994882;28;20033;-74
2023/02/21 13:32:59;;;;;;;3.17;2.70;;;13.60;73.80;;;;;;4995928;28;20034;-74
2023/02/21 13:35:37;;;;;;;2.58;2.38;;;13.60;73.70;;;;;;4994963;28;20464;-74
2023/02/21 13:38:07;;;;;;;4.05;2.40;;;13.60;73.70;;;;;;4994859;28;20104;-73
2023/02/21 13:41:16;;;;;;;2.55;2.35;;;13.60;73.70;;;;;;4994698;28;20031;-73
2023/02/21 13:43:46;;;;;;;3.28;2.50;;;13.60;73.60;;;;;;4995831;28;20560;-73
2023/02/21 13:46:24;;;;;;;3.20;2.00;;;13.60;73.60;;;;;;4994789;28;20615;-74
2023/02/21 13:49:27;;;;;;;2.95;2.20;;;13.60;73.60;;;;;;4996032;28;20538;-74
2023/02/21 13:51:54;;;;;;;2.97;2.63;;;13.60;73.60;;;;;;4995893;28;20026;-73
2023/02/21 13:54:23;;;;;;;3.35;2.33;;;13.60;73.60;;;;;;4994341;28;20054;-73
2023/02/21 13:56:50;;;;;;;2.97;2.25;;;13.60;73.60;;;;;;4995759;28;20018;-74
2023/02/21 13:59:21;;;;;;;3.63;2.78;;;13.60;73.60;;;;;;4994535;28;20031;-74
2023/02/21 14:01:49;;;;;;;2.63;2.42;;;13.60;73.60;;;;;;4995751;28;20058;-74
2023/02/21 14:04:56;;;;;;;3.03;2.72;;;13.60;73.60;;;;;;4994275;28;20065;-74
2023/02/21 14:07:41;;;;;;;2.75;2.38;;;13.60;73.60;;;;;;5012868;28;20038;-74
2023/02/21 14:10:20;;;;;;;2.38;2.13;;;13.60;73.60;;;;;;4996237;28;20104;-74
2023/02/21 14:12:52;;;;;;;3.67;2.45;;;13.60;73.60;;;;;;4996700;28;20129;-73
2023/02/21 14:15:18;;;;;;;2.35;2.15;;;13.60;73.60;;;;;;4996424;28;20490;-73
2023/02/21 14:17:44;;;;;;;3.50;2.38;;;13.60;73.60;;;;;;5012840;28;20034;-74
2023/02/21 14:20:15;;;;;;;2.60;2.40;;;13.60;73.70;;;;;;5012359;28;20030;-73
2023/02/21 14:22:40;;;;;;;2.95;2.63;;;13.60;73.60;;;;;;5012655;28;20092;-74
2023/02/21 14:25:27;;;;;;;2.78;2.50;;;13.60;73.60;;;;;;4979929;28;20504;-74
2023/02/21 14:27:53;;;;;;;2.85;2.47;;;13.60;73.60;;;;;;5012646;28;20445;-73
2023/02/21 14:30:27;;;;;;;2.60;2.40;;;13.60;73.60;;;;;;5012669;28;20052;-73
2023/02/21 14:32:54;;;;;;;3.60;2.50;;;13.70;73.70;;;;;;5028866;28;20129;-73
2023/02/21 14:35:19;;;;;;;2.60;2.40;;;13.60;73.60;;;;;;5028786;28;20026;-73
2023/02/21 14:38:00;;;;;;;3.03;2.20;;;13.60;73.60;;;;;;5012170;28;20034;-74
2023/02/21 14:40:34;;;;;;;2.47;2.28;;;13.60;73.60;;;;;;5012772;28;20073;-74
2023/02/21 14:43:32;;;;;;;3.05;2.22;;;13.60;73.60;;;;;;5010168;28;20038;-74
2023/02/21 14:46:37;;;;;;;2.63;2.30;;;13.60;73.50;;;;;;4993679;28;20030;-73
2023/02/21 14:49:39;;;;;;;2.92;2.33;;;13.60;73.50;;;;;;4994762;28;20027;-74
2023/02/21 14:52:08;;;;;;;2.58;2.38;;;13.60;73.60;;;;;;4994535;28;20022;-73
2023/02/21 14:55:00;;;;;;;2.90;2.65;;;13.70;73.60;;;;;;4994330;28;20043;-73
2023/02/21 14:57:53;;;;;;;3.05;2.50;;;13.60;73.60;;;;;;4994564;28;20022;-73
2023/02/21 15:00:48;;;;;;;;;;;13.60;73.50;;;;;;4994924;28;20050;-74
2023/02/21 15:03:16;;;;;;;2.88;2.38;;;13.60;73.50;;;;;;4997935;28;19916;-73
2023/02/21 15:05:46;;;;;;;3.42;2.50;;;13.60;73.60;;;;;;4993108;28;20534;-74
2023/02/21 15:08:17;;;;;;;3.35;2.55;;;13.60;73.60;;;;;;4992930;28;20038;-74
2023/02/21 15:10:44;;;;;;;2.42;2.20;;;13.60;73.60;;;;;;4994233;28;20023;-74
2023/02/21 15:13:25;;;;;;;3.30;2.30;;;13.60;73.50;;;;;;4992871;28;20030;-74
2023/02/21 15:15:59;;;;;;;2.47;2.28;;;13.70;73.60;;;;;;4993225;28;20076;-73
2023/02/21 15:18:36;;;;;;;3.40;2.53;;;13.70;73.60;;;;;;4992841;28;20026;-73
2023/02/21 15:21:11;;;;;;;2.30;2.10;;;13.70;73.50;;;;;;4992677;28;20571;-73
2023/02/21 15:23:37;;;;;;;3.10;2.58;;;13.70;73.60;;;;;;4993224;28;20034;-73
2023/02/21 15:26:20;;;;;;;2.83;2.40;;;13.70;73.50;;;;;;4992685;28;20105;-73
2023/02/21 15:28:46;;;;;;;;;;;13.70;73.50;;;;;;4993326;28;20392;-74
2023/02/21 15:31:12;;;;;;;2.40;2.20;;;13.60;73.40;;;;;;4992618;28;19912;-74